Terminal Aerodrome Forecast
Issued by NWS

Home | Current Version | Previous Version | Text Only | Print | Product List | Glossary On
Versions: 1 2 3 4 5 6 7 8 9 10 11 12 13 14 15 16 17 18 19 20 21 22 23 24 25 26 27 28 29 30 31 32
000
FTUS43 KIWX 190533
TAFSBN
TAF
KSBN 190533Z 1906/2006 07012KT 3SM -SN OVC009
     FM191000 05014G24KT 1SM -SN BR OVC007
     FM191700 04017G26KT 2SM -SN BR OVC008
     FM192000 04017G26KT 5SM -SN BR OVC012
     FM200000 02015KT P6SM BKN050=

USA.gov is the U.S. government's official web portal to all federal, state and local government web resources and services.